createdAt,value
2022-10-19T00:04:29.020Z,8.98
2022-10-19T00:09:30.444Z,5.03
2022-10-19T00:14:31.949Z,9.60
2022-10-19T00:19:33.948Z,7.05
2022-10-19T00:24:35.495Z,9.55
2022-10-19T00:29:37.129Z,10.25
2022-10-19T00:34:38.541Z,9.00
2022-10-19T00:39:40.065Z,8.75
2022-10-19T00:45:05.305Z,12.05
2022-10-19T00:50:07.512Z,12.85
2022-10-19T00:55:11.004Z,7.80
2022-10-19T01:00:13.075Z,8.25
2022-10-19T01:05:16.052Z,12.27
2022-10-19T01:10:19.441Z,10.73
2022-10-19T01:15:35.660Z,12.23
2022-10-19T01:20:43.157Z,5.47
2022-10-19T01:26:24.966Z,6.28
2022-10-19T01:31:53.560Z,8.00
2022-10-19T01:37:05.159Z,7.40
2022-10-19T01:42:18.740Z,7.07
2022-10-19T01:47:30.719Z,9.97
2022-10-19T01:52:33.982Z,7.75
2022-10-19T01:57:45.810Z,16.60
2022-10-19T02:02:50.061Z,8.35
2022-10-19T02:07:57.673Z,3.90
2022-10-19T02:13:00.623Z,12.65
2022-10-19T02:18:04.574Z,9.65
2022-10-19T02:23:06.692Z,7.57
2022-10-19T02:28:08.345Z,12.25
2022-10-19T02:33:12.237Z,7.28
2022-10-19T02:38:18.861Z,13.82
2022-10-19T02:43:23.139Z,10.95
2022-10-19T02:48:27.631Z,9.30
2022-10-19T02:58:31.628Z,14.45
2022-10-19T03:03:33.048Z,10.68
2022-10-19T03:08:34.443Z,11.75
2022-10-19T03:13:35.925Z,10.15
2022-10-19T03:18:37.449Z,7.55
2022-10-19T03:23:40.265Z,5.75
2022-10-19T03:28:42.228Z,6.93
2022-10-19T03:33:44.231Z,11.15
2022-10-19T03:38:45.730Z,13.60
2022-10-19T03:43:47.305Z,11.13
2022-10-19T03:48:49.581Z,5.10
2022-10-19T03:53:56.346Z,6.63
2022-10-19T03:58:59.816Z,8.98
2022-10-19T04:04:04.087Z,9.02
2022-10-19T04:09:07.732Z,9.00
2022-10-19T04:14:18.938Z,14.37
2022-10-19T04:19:28.729Z,9.45
2022-10-19T04:24:30.191Z,13.45
2022-10-19T04:29:31.627Z,9.77
2022-10-19T04:34:35.246Z,12.15
2022-10-19T04:39:41.020Z,16.17
2022-10-19T04:44:42.443Z,12.98
2022-10-19T04:49:44.213Z,9.27
2022-10-19T04:54:46.080Z,9.50
2022-10-19T04:59:47.564Z,12.75
2022-10-19T05:04:49.053Z,11.23
2022-10-19T05:09:50.484Z,12.05
2022-10-19T05:14:51.916Z,11.55
2022-10-19T05:19:53.316Z,9.75
2022-10-19T05:24:58.073Z,9.88
2022-10-19T05:29:59.975Z,12.50
2022-10-19T05:35:01.538Z,7.18
2022-10-19T05:40:03.131Z,16.30
2022-10-19T05:45:05.033Z,14.35
2022-10-19T05:50:06.809Z,12.50
2022-10-19T05:55:09.048Z,12.50
2022-10-19T06:00:12.165Z,15.40
2022-10-19T06:05:13.722Z,10.77
2022-10-19T06:10:15.207Z,10.93
2022-10-19T06:15:16.960Z,13.48
2022-10-19T06:20:18.418Z,15.70
2022-10-19T06:25:20.461Z,16.70
2022-10-19T06:30:22.064Z,10.30
2022-10-19T06:35:23.515Z,15.38
2022-10-19T06:40:25.478Z,13.60
2022-10-19T06:45:27.090Z,14.65
2022-10-19T06:50:28.611Z,17.50
2022-10-19T06:55:30.069Z,6.82
2022-10-19T07:00:31.562Z,12.05
2022-10-19T07:05:33.103Z,27.38
2022-10-19T07:10:36.816Z,15.63
2022-10-19T07:15:38.231Z,18.97
2022-10-19T07:20:39.656Z,14.77
2022-10-19T07:25:41.167Z,22.33
2022-10-19T07:30:42.660Z,17.23
2022-10-19T07:35:44.121Z,15.18
2022-10-19T07:40:47.436Z,11.30
2022-10-19T07:45:49.160Z,12.87
2022-10-19T07:50:50.609Z,10.95
2022-10-19T07:55:52.104Z,18.23
2022-10-19T08:01:00.253Z,13.38
2022-10-19T08:06:05.161Z,10.10
2022-10-19T08:11:08.206Z,9.45
2022-10-19T08:16:40.496Z,8.38
2022-10-19T08:21:44.649Z,10.15
2022-10-19T08:26:46.446Z,10.75
2022-10-19T08:31:49.109Z,6.97
2022-10-19T08:36:50.574Z,5.63
2022-10-19T08:42:03.171Z,5.13
2022-10-19T08:47:40.415Z,4.63
2022-10-19T08:52:43.160Z,5.35
2022-10-19T08:58:06.701Z,3.63
2022-10-19T09:03:22.964Z,3.97
2022-10-19T09:08:38.883Z,2.83
2022-10-19T09:14:04.262Z,4.90
2022-10-19T09:19:17.437Z,2.80
2022-10-19T09:24:41.795Z,1.38
2022-10-19T09:29:50.758Z,2.25
2022-10-19T09:34:56.603Z,3.42
2022-10-19T09:39:58.177Z,3.83
2022-10-19T09:45:02.507Z,3.25
2022-10-19T09:50:23.938Z,2.47
2022-10-19T09:55:42.301Z,4.82
2022-10-19T10:00:43.723Z,4.07
2022-10-19T10:05:47.661Z,3.05
2022-10-19T10:11:15.222Z,2.50
2022-10-19T10:16:19.942Z,3.58
2022-10-19T10:21:25.781Z,1.77
2022-10-19T10:26:28.148Z,2.92
2022-10-19T10:31:30.847Z,1.70
2022-10-19T10:36:32.435Z,0.98
2022-10-19T10:41:40.593Z,0.98
2022-10-19T10:46:52.181Z,2.03
2022-10-19T10:52:04.869Z,1.20
2022-10-19T10:57:11.606Z,0.73
2022-10-19T11:02:28.162Z,2.60
2022-10-19T11:07:33.718Z,0.17
2022-10-19T11:12:43.916Z,0.50
2022-10-19T11:18:08.275Z,1.13
2022-10-19T11:23:26.585Z,2.67
2022-10-19T11:28:49.572Z,1.33
2022-10-19T11:34:16.888Z,5.43
2022-10-19T11:39:35.539Z,0.75
2022-10-19T11:44:58.173Z,2.95
2022-10-19T11:50:21.090Z,0.32
2022-10-19T11:55:39.476Z,1.45
2022-10-19T12:00:54.363Z,0.98
2022-10-19T12:06:01.479Z,0.63
2022-10-19T12:11:50.919Z,0.38
2022-10-19T12:16:56.510Z,0.75
2022-10-19T12:22:07.484Z,1.48
2022-10-19T12:27:17.265Z,1.23
2022-10-19T12:32:23.615Z,1.20
2022-10-19T12:37:25.016Z,0.50
2022-10-19T12:42:52.062Z,1.00
2022-10-19T12:48:08.651Z,2.45
2022-10-19T12:53:54.961Z,1.08
2022-10-19T12:58:57.562Z,0.52
2022-10-19T13:04:13.502Z,0.40
2022-10-19T13:09:28.058Z,0.45
2022-10-19T13:14:50.921Z,0.40
2022-10-19T13:25:19.619Z,0.00
2022-10-19T13:30:38.843Z,0.15
2022-10-19T13:35:41.058Z,1.70
2022-10-19T13:40:48.280Z,4.10
2022-10-19T13:46:13.405Z,0.43
2022-10-19T13:51:35.985Z,1.17
2022-10-19T13:56:47.345Z,0.70
2022-10-19T14:01:51.496Z,0.90
2022-10-19T14:06:56.520Z,0.98
2022-10-19T14:12:09.158Z,0.95
2022-10-19T14:17:14.981Z,2.60
2022-10-19T14:22:33.940Z,1.17
2022-10-19T14:27:35.911Z,1.67
2022-10-19T14:32:37.733Z,1.02
2022-10-19T14:37:43.310Z,0.60
2022-10-19T14:42:46.293Z,0.45
2022-10-19T14:48:05.782Z,2.53
2022-10-19T14:53:36.805Z,2.28
2022-10-19T14:59:00.689Z,1.70
2022-10-19T15:09:12.106Z,0.98
2022-10-19T15:14:25.788Z,0.82
2022-10-19T15:19:33.541Z,1.10
2022-10-19T15:24:36.040Z,2.55
2022-10-19T15:29:37.484Z,0.57
2022-10-19T15:34:42.537Z,1.67
2022-10-19T15:39:45.769Z,1.95
2022-10-19T15:44:47.336Z,0.93
2022-10-19T15:49:53.594Z,1.58
2022-10-19T15:54:57.540Z,1.00
2022-10-19T16:00:02.317Z,1.42
2022-10-19T16:10:15.661Z,1.83
2022-10-19T16:15:22.395Z,1.80
2022-10-19T16:20:25.353Z,1.67
2022-10-19T16:25:26.767Z,1.50
2022-10-19T16:30:28.236Z,4.30
2022-10-19T16:35:29.697Z,1.45
2022-10-19T16:40:32.310Z,1.42
2022-10-19T16:45:33.747Z,1.67
2022-10-19T16:50:35.204Z,1.70
2022-10-19T16:55:37.462Z,1.55
2022-10-19T17:00:38.893Z,1.85
2022-10-19T17:05:40.345Z,2.50
2022-10-19T17:10:41.770Z,6.60
2022-10-19T17:15:43.733Z,3.45
2022-10-19T17:20:45.287Z,4.13
2022-10-19T17:25:48.296Z,1.92
2022-10-19T17:30:50.122Z,1.88
2022-10-19T17:35:51.629Z,2.83
2022-10-19T17:40:53.074Z,1.75
2022-10-19T17:46:02.842Z,4.15
2022-10-19T17:51:07.037Z,3.92
2022-10-19T17:56:11.504Z,4.93
2022-10-19T18:01:13.686Z,5.97
2022-10-19T18:06:36.594Z,5.25
2022-10-19T18:11:43.359Z,4.18
2022-10-19T18:16:46.449Z,6.15
2022-10-19T18:21:49.025Z,3.90
2022-10-19T18:26:51.072Z,4.70
2022-10-19T18:31:53.091Z,8.20
2022-10-19T18:36:55.148Z,10.65
2022-10-19T18:41:56.567Z,9.98
2022-10-19T18:46:58.011Z,10.90
2022-10-19T18:51:59.415Z,9.30
2022-10-19T18:57:13.299Z,10.43
2022-10-19T19:02:22.305Z,12.38
2022-10-19T19:07:24.433Z,14.05
2022-10-19T19:12:27.152Z,13.85
2022-10-19T19:17:28.740Z,15.27
2022-10-19T19:22:30.269Z,11.57
2022-10-19T19:27:32.175Z,12.52
2022-10-19T19:32:34.860Z,10.20
2022-10-19T19:37:36.818Z,8.43
2022-10-19T19:42:38.396Z,7.70
2022-10-19T19:47:39.846Z,9.95
2022-10-19T19:52:41.356Z,9.45
2022-10-19T19:57:43.351Z,11.23
2022-10-19T20:02:44.758Z,12.20
2022-10-19T20:07:46.667Z,9.40
2022-10-19T20:12:48.183Z,13.75
2022-10-19T20:17:52.191Z,11.80
2022-10-19T20:22:53.663Z,9.73
2022-10-19T20:27:55.076Z,11.50
2022-10-19T20:32:56.616Z,10.55
2022-10-19T20:37:58.525Z,7.15
2022-10-19T20:43:00.001Z,7.40
2022-10-19T20:48:01.383Z,11.60
2022-10-19T20:53:02.864Z,8.73
2022-10-19T20:58:05.366Z,7.38
2022-10-19T21:03:06.777Z,7.53
2022-10-19T21:08:09.387Z,9.38
2022-10-19T21:13:10.808Z,11.60
2022-10-19T21:18:12.203Z,7.68
2022-10-19T21:23:13.659Z,6.47
2022-10-19T21:28:15.078Z,4.90
2022-10-19T21:33:16.564Z,6.73
2022-10-19T21:38:17.957Z,3.97
2022-10-19T21:43:19.353Z,3.03
2022-10-19T21:48:21.485Z,3.43
2022-10-19T21:53:23.588Z,3.22
2022-10-19T21:58:25.041Z,4.13
2022-10-19T22:03:26.447Z,5.47
2022-10-19T22:08:27.889Z,4.10
2022-10-19T22:13:29.331Z,5.17
2022-10-19T22:18:30.747Z,3.27
2022-10-19T22:23:32.170Z,2.53
2022-10-19T22:28:33.612Z,4.93
2022-10-19T22:33:35.392Z,3.83
2022-10-19T22:38:36.911Z,2.70
2022-10-19T22:43:38.308Z,3.53
2022-10-19T22:48:39.808Z,1.90
2022-10-19T22:53:41.424Z,7.60
2022-10-19T22:58:42.990Z,2.43
2022-10-19T23:03:44.789Z,2.50
2022-10-19T23:08:46.966Z,2.03
2022-10-19T23:13:48.897Z,1.97
2022-10-19T23:18:50.364Z,2.60
2022-10-19T23:23:51.772Z,1.97
2022-10-19T23:28:53.237Z,2.37
2022-10-19T23:33:54.748Z,3.17
2022-10-19T23:38:57.373Z,2.10
2022-10-19T23:43:58.872Z,2.67
2022-10-19T23:49:00.276Z,2.20
2022-10-19T23:54:01.694Z,1.83
2022-10-19T23:59:03.139Z,2.70
